createdAt,value
2018-11-12T00:01:03.995Z,8.95
2018-11-12T00:03:38.490Z,9.05
2018-11-12T00:06:12.942Z,8.23
2018-11-12T00:08:47.132Z,8.78
2018-11-12T00:11:21.381Z,9.40
2018-11-12T00:13:55.776Z,9.00
2018-11-12T00:16:30.001Z,9.00
2018-11-12T00:19:04.461Z,8.63
2018-11-12T00:21:38.745Z,8.35
2018-11-12T00:24:13.122Z,9.28
2018-11-12T00:26:47.552Z,12.00
2018-11-12T00:29:21.900Z,8.93
2018-11-12T00:31:56.207Z,9.35
2018-11-12T00:34:30.648Z,9.28
2018-11-12T00:37:05.137Z,9.00
2018-11-12T00:39:39.552Z,9.20
2018-11-12T00:42:13.870Z,9.03
2018-11-12T00:44:48.211Z,8.23
2018-11-12T00:47:22.528Z,9.25
2018-11-12T00:49:56.854Z,8.68
2018-11-12T00:52:31.227Z,7.62
2018-11-12T00:55:05.881Z,8.40
2018-11-12T00:57:40.725Z,8.90
2018-11-12T01:00:19.248Z,8.90
2018-11-12T01:02:53.666Z,8.88
2018-11-12T01:05:28.040Z,8.30
2018-11-12T01:08:02.343Z,7.60
2018-11-12T01:10:36.699Z,8.90
2018-11-12T01:13:11.066Z,7.47
2018-11-12T01:15:45.404Z,8.55
2018-11-12T01:18:19.650Z,8.50
2018-11-12T01:20:53.893Z,7.97
2018-11-12T01:23:28.116Z,9.00
2018-11-12T01:26:02.447Z,12.88
2018-11-12T01:28:36.761Z,12.20
2018-11-12T01:31:10.979Z,10.55
2018-11-12T01:33:45.248Z,8.90
2018-11-12T01:36:19.499Z,8.93
2018-11-12T01:38:53.864Z,8.63
2018-11-12T01:41:28.247Z,9.95
2018-11-12T01:44:02.520Z,9.13
2018-11-12T01:46:36.788Z,9.75
2018-11-12T01:49:11.061Z,9.10
2018-11-12T01:51:45.296Z,8.83
2018-11-12T01:54:19.549Z,8.43
2018-11-12T01:56:54.002Z,8.38
2018-11-12T01:59:28.371Z,9.10
2018-11-12T02:02:02.764Z,8.18
2018-11-12T02:04:37.160Z,8.23
2018-11-12T02:07:11.333Z,8.00
2018-11-12T02:09:45.593Z,8.15
2018-11-12T02:12:20.012Z,8.10
2018-11-12T02:14:54.323Z,8.88
2018-11-12T02:17:28.696Z,8.55
2018-11-12T02:20:03.347Z,7.55
2018-11-12T02:22:37.724Z,7.20
2018-11-12T02:25:12.539Z,7.70
2018-11-12T02:27:46.945Z,7.80
2018-11-12T02:30:26.687Z,11.12
2018-11-12T02:33:01.219Z,7.55
2018-11-12T02:35:35.435Z,7.33
2018-11-12T02:38:09.832Z,7.83
2018-11-12T02:40:44.291Z,7.65
2018-11-12T02:43:18.777Z,6.60
2018-11-12T02:45:53.206Z,7.55
2018-11-12T02:48:27.621Z,8.15
2018-11-12T02:51:01.969Z,8.65
2018-11-12T02:53:36.431Z,7.83
2018-11-12T02:56:10.770Z,7.50
2018-11-12T02:58:45.088Z,8.30
2018-11-12T03:01:22.611Z,7.60
2018-11-12T03:03:56.960Z,8.10
2018-11-12T03:06:31.316Z,7.30
2018-11-12T03:09:09.236Z,7.35
2018-11-12T03:11:43.467Z,8.90
2018-11-12T03:14:17.868Z,6.83
2018-11-12T03:16:52.355Z,7.37
2018-11-12T03:19:26.635Z,7.08
2018-11-12T03:22:00.928Z,7.58
2018-11-12T03:24:35.254Z,8.15
2018-11-12T03:27:09.619Z,6.85
2018-11-12T03:29:43.987Z,7.47
2018-11-12T03:32:18.285Z,7.92
2018-11-12T03:34:52.659Z,6.35
2018-11-12T03:37:27.073Z,6.60
2018-11-12T03:40:01.342Z,7.33
2018-11-12T03:42:35.751Z,6.62
2018-11-12T03:45:12.897Z,7.00
2018-11-12T03:47:47.145Z,7.08
2018-11-12T03:50:22.764Z,7.10
2018-11-12T03:52:57.274Z,7.40
2018-11-12T03:55:31.507Z,7.05
2018-11-12T03:58:06.094Z,6.62
2018-11-12T04:00:40.522Z,6.95
2018-11-12T04:03:14.830Z,8.10
2018-11-12T04:05:49.289Z,7.72
2018-11-12T04:08:23.593Z,7.42
2018-11-12T04:10:58.116Z,7.42
2018-11-12T04:13:32.643Z,8.13
2018-11-12T04:16:06.980Z,7.28
2018-11-12T04:18:41.483Z,7.47
2018-11-12T04:21:15.836Z,7.55
2018-11-12T04:23:50.224Z,8.30
2018-11-12T04:26:24.655Z,7.30
2018-11-12T04:28:58.991Z,6.97
2018-11-12T04:31:33.292Z,7.42
2018-11-12T04:34:07.626Z,7.58
2018-11-12T04:36:42.183Z,7.40
2018-11-12T04:39:16.535Z,7.40
2018-11-12T04:41:51.075Z,8.95
2018-11-12T04:44:25.479Z,7.55
2018-11-12T04:46:59.911Z,18.02
2018-11-12T04:49:34.348Z,8.60
2018-11-12T04:52:08.729Z,7.40
2018-11-12T04:54:43.156Z,7.22
2018-11-12T04:57:17.568Z,7.65
2018-11-12T04:59:52.185Z,8.03
2018-11-12T05:02:28.656Z,7.05
2018-11-12T05:05:03.209Z,7.58
2018-11-12T05:07:37.565Z,6.90
2018-11-12T05:10:13.155Z,6.75
2018-11-12T05:12:48.082Z,6.95
2018-11-12T05:15:23.415Z,7.85
2018-11-12T05:17:57.813Z,7.92
2018-11-12T05:20:32.141Z,6.72
2018-11-12T05:23:06.516Z,7.35
2018-11-12T05:25:40.932Z,6.78
2018-11-12T05:28:15.351Z,6.80
2018-11-12T05:30:49.624Z,6.65
2018-11-12T05:33:23.997Z,7.00
2018-11-12T05:35:58.375Z,6.58
2018-11-12T05:38:32.799Z,7.50
2018-11-12T05:41:07.041Z,7.30
2018-11-12T05:43:41.340Z,7.12
2018-11-12T05:46:15.654Z,8.58
2018-11-12T05:48:50.076Z,7.10
2018-11-12T05:51:24.569Z,6.90
2018-11-12T05:53:58.828Z,6.97
2018-11-12T05:56:33.223Z,6.15
2018-11-12T05:59:07.520Z,6.03
2018-11-12T06:01:41.952Z,6.05
2018-11-12T06:04:16.419Z,5.90
2018-11-12T06:06:50.682Z,5.50
2018-11-12T06:09:24.982Z,7.60
2018-11-12T06:11:59.213Z,10.43
2018-11-12T06:14:33.493Z,17.25
2018-11-12T06:17:07.952Z,29.50
2018-11-12T06:19:42.279Z,34.25
2018-11-12T06:22:16.528Z,28.87
2018-11-12T06:24:50.819Z,12.10
2018-11-12T06:27:25.047Z,11.90
2018-11-12T06:29:59.440Z,7.37
2018-11-12T06:32:33.746Z,10.20
2018-11-12T06:35:09.423Z,9.10
2018-11-12T06:37:44.463Z,11.83
2018-11-12T06:40:20.210Z,13.62
2018-11-12T06:42:54.573Z,8.10
2018-11-12T06:45:29.867Z,9.23
2018-11-12T06:48:04.799Z,10.10
2018-11-12T06:50:39.520Z,7.70
2018-11-12T06:53:14.348Z,12.03
2018-11-12T06:55:48.960Z,11.08
2018-11-12T06:58:23.377Z,8.58
2018-11-12T07:00:57.677Z,7.00
2018-11-12T07:03:32.018Z,7.55
2018-11-12T07:06:06.303Z,7.50
2018-11-12T07:08:40.601Z,6.67
2018-11-12T07:11:14.898Z,7.33
2018-11-12T07:13:49.396Z,6.25
2018-11-12T07:16:23.755Z,7.35
2018-11-12T07:18:58.176Z,6.40
2018-11-12T07:21:32.580Z,7.95
2018-11-12T07:24:06.858Z,8.20
2018-11-12T07:26:41.464Z,7.75
2018-11-12T07:29:15.834Z,6.62
2018-11-12T07:31:50.159Z,6.10
2018-11-12T07:34:24.444Z,7.53
2018-11-12T07:36:58.755Z,7.45
2018-11-12T07:39:33.001Z,7.40
2018-11-12T07:42:07.494Z,9.05
2018-11-12T07:44:41.975Z,20.85
2018-11-12T07:47:16.357Z,8.08
2018-11-12T07:49:50.730Z,7.20
2018-11-12T07:52:25.127Z,5.83
2018-11-12T07:54:59.623Z,5.55
2018-11-12T07:57:34.016Z,5.90
2018-11-12T08:00:13.171Z,4.97
2018-11-12T08:02:48.413Z,4.40
2018-11-12T08:05:22.812Z,4.72
2018-11-12T08:07:57.276Z,4.97
2018-11-12T08:10:31.536Z,10.38
2018-11-12T08:13:06.234Z,8.60
2018-11-12T08:15:40.611Z,7.15
2018-11-12T08:18:14.887Z,8.65
2018-11-12T08:20:49.108Z,7.83
2018-11-12T08:23:23.349Z,8.20
2018-11-12T08:25:57.619Z,7.97
2018-11-12T08:28:31.860Z,8.33
2018-11-12T08:31:06.118Z,7.50
2018-11-12T08:33:40.453Z,6.90
2018-11-12T08:36:14.837Z,5.97
2018-11-12T08:38:49.275Z,6.30
2018-11-12T08:41:23.631Z,5.70
2018-11-12T08:43:58.056Z,5.67
2018-11-12T08:46:32.355Z,6.37
2018-11-12T08:49:06.801Z,5.60
2018-11-12T08:51:41.033Z,6.33
2018-11-12T08:54:15.583Z,5.05
2018-11-12T08:56:49.978Z,3.52
2018-11-12T08:59:24.304Z,4.47
2018-11-12T09:01:58.615Z,4.05
2018-11-12T09:04:33.022Z,4.42
2018-11-12T09:07:07.246Z,2.90
2018-11-12T09:09:41.594Z,3.15
2018-11-12T09:12:15.863Z,3.12
2018-11-12T09:14:50.174Z,2.77
2018-11-12T09:17:24.548Z,2.50
2018-11-12T09:19:58.855Z,2.08
2018-11-12T09:22:33.225Z,1.62
2018-11-12T09:25:09.845Z,1.45
2018-11-12T09:27:44.354Z,1.45
2018-11-12T09:30:26.549Z,1.55
2018-11-12T09:33:00.755Z,1.20
2018-11-12T09:35:34.978Z,1.17
2018-11-12T09:38:09.428Z,1.10
2018-11-12T09:40:43.645Z,1.07
2018-11-12T09:43:18.140Z,1.10
2018-11-12T09:45:52.506Z,1.45
2018-11-12T09:48:27.086Z,2.12
2018-11-12T09:51:01.313Z,1.02
2018-11-12T09:53:35.598Z,1.00
2018-11-12T09:56:09.957Z,0.85
2018-11-12T09:58:44.231Z,0.80
2018-11-12T10:01:19.009Z,1.05
2018-11-12T10:03:53.854Z,0.95
2018-11-12T10:06:28.598Z,1.10
2018-11-12T10:09:04.817Z,1.60
2018-11-12T10:11:38.790Z,1.20
2018-11-12T10:14:12.081Z,0.93
2018-11-12T10:16:47.263Z,0.90
2018-11-12T10:19:19.322Z,1.12
2018-11-12T10:21:53.677Z,0.85
2018-11-12T10:24:27.891Z,0.80
2018-11-12T10:27:02.407Z,1.00
2018-11-12T10:29:36.702Z,1.37
2018-11-12T10:32:11.004Z,1.27
2018-11-12T10:34:45.275Z,1.50
2018-11-12T10:37:19.773Z,1.00
2018-11-12T10:39:54.028Z,1.07
2018-11-12T10:42:28.302Z,1.40
2018-11-12T10:45:02.567Z,1.17
2018-11-12T10:47:36.877Z,1.20
2018-11-12T10:50:11.195Z,1.85
2018-11-12T10:52:46.478Z,1.30
2018-11-12T10:55:23.216Z,2.05
2018-11-12T10:57:57.267Z,1.20
2018-11-12T11:00:37.749Z,1.30
2018-11-12T11:03:18.092Z,0.95
2018-11-12T11:05:53.442Z,0.80
2018-11-12T11:08:27.872Z,0.80
2018-11-12T11:11:02.462Z,0.93
2018-11-12T11:13:36.925Z,1.02
2018-11-12T11:16:11.209Z,1.10
2018-11-12T11:18:45.394Z,0.85
2018-11-12T11:21:19.685Z,1.10
2018-11-12T11:23:54.070Z,1.20
2018-11-12T11:26:28.365Z,1.25
2018-11-12T11:29:02.637Z,1.30
2018-11-12T11:31:36.869Z,1.00
2018-11-12T11:34:11.114Z,1.12
2018-11-12T11:36:45.549Z,0.80
2018-11-12T11:39:19.957Z,0.80
2018-11-12T11:41:54.392Z,1.07
2018-11-12T11:44:28.713Z,1.25
2018-11-12T11:47:03.061Z,0.80
2018-11-12T11:49:37.480Z,0.70
2018-11-12T11:52:11.869Z,0.80
2018-11-12T11:54:46.070Z,0.60
2018-11-12T11:57:20.359Z,0.85
2018-11-12T11:59:54.602Z,1.00
2018-11-12T12:02:28.899Z,0.90
2018-11-12T12:05:03.282Z,1.07
2018-11-12T12:07:37.638Z,0.98
2018-11-12T12:10:12.626Z,0.82
2018-11-12T12:12:47.957Z,0.90
2018-11-12T12:15:23.129Z,0.80
2018-11-12T12:17:57.545Z,3.20
2018-11-12T12:20:31.893Z,0.90
2018-11-12T12:23:06.246Z,0.70
2018-11-12T12:25:40.822Z,0.78
2018-11-12T12:28:15.093Z,0.80
2018-11-12T12:30:49.351Z,0.80
2018-11-12T12:33:23.885Z,0.70
2018-11-12T12:35:58.432Z,0.78
2018-11-12T12:38:32.744Z,0.80
2018-11-12T12:41:07.098Z,1.00
2018-11-12T12:43:41.518Z,0.70
2018-11-12T12:46:15.784Z,0.80
2018-11-12T12:48:50.013Z,0.80
2018-11-12T12:51:24.392Z,0.70
2018-11-12T12:53:58.873Z,0.90
2018-11-12T12:56:33.173Z,1.00
2018-11-12T12:59:07.510Z,0.90
2018-11-12T13:01:41.922Z,1.40
2018-11-12T13:04:16.129Z,0.95
2018-11-12T13:06:50.359Z,1.50
2018-11-12T13:09:24.652Z,0.88
2018-11-12T13:11:59.146Z,0.80
2018-11-12T13:14:33.550Z,0.60
2018-11-12T13:17:07.661Z,0.80
2018-11-12T13:19:42.074Z,0.80
2018-11-12T13:22:16.507Z,0.60
2018-11-12T13:24:50.789Z,1.00
2018-11-12T13:27:25.006Z,0.90
2018-11-12T13:29:59.418Z,0.72
2018-11-12T13:32:33.615Z,0.90
2018-11-12T13:35:09.285Z,0.90
2018-11-12T13:37:43.697Z,0.85
2018-11-12T13:40:19.368Z,0.80
2018-11-12T13:42:59.733Z,0.80
2018-11-12T13:45:34.190Z,0.80
2018-11-12T13:48:08.737Z,1.22
2018-11-12T13:50:43.104Z,0.80
2018-11-12T13:53:17.414Z,0.70
2018-11-12T13:55:51.875Z,0.80
2018-11-12T13:58:26.283Z,0.90
2018-11-12T14:01:00.674Z,1.80
2018-11-12T14:03:35.096Z,1.15
2018-11-12T14:06:09.448Z,1.55
2018-11-12T14:08:43.839Z,0.88
2018-11-12T14:11:18.265Z,0.85
2018-11-12T14:13:52.641Z,0.93
2018-11-12T14:16:27.167Z,1.00
2018-11-12T14:19:01.436Z,0.85
2018-11-12T14:21:36.107Z,1.00
2018-11-12T14:24:10.312Z,0.70
2018-11-12T14:26:44.539Z,0.93
2018-11-12T14:29:18.766Z,1.40
2018-11-12T14:31:53.114Z,1.00
2018-11-12T14:34:27.495Z,1.00
2018-11-12T14:37:01.863Z,1.00
2018-11-12T14:39:36.273Z,1.10
2018-11-12T14:42:10.523Z,0.82
2018-11-12T14:44:44.884Z,1.00
2018-11-12T14:47:19.183Z,2.00
2018-11-12T14:49:53.413Z,1.12
2018-11-12T14:52:27.663Z,0.90
2018-11-12T14:55:02.028Z,1.00
2018-11-12T14:57:36.329Z,1.07
2018-11-12T15:00:19.873Z,1.25
2018-11-12T15:02:54.742Z,1.40
2018-11-12T15:05:28.945Z,1.40
2018-11-12T15:08:03.139Z,2.95
2018-11-12T15:10:37.499Z,1.42
2018-11-12T15:13:11.893Z,1.40
2018-11-12T15:15:46.148Z,1.40
2018-11-12T15:18:20.457Z,1.40
2018-11-12T15:20:54.736Z,1.20
2018-11-12T15:23:28.905Z,0.90
2018-11-12T15:26:03.234Z,1.62
2018-11-12T15:28:37.527Z,1.10
2018-11-12T15:31:11.957Z,1.20
2018-11-12T15:33:46.189Z,2.27
2018-11-12T15:36:20.617Z,2.15
2018-11-12T15:38:55.229Z,2.40
2018-11-12T15:41:29.437Z,3.00
2018-11-12T15:44:04.831Z,3.00
2018-11-12T15:46:39.159Z,15.55
2018-11-12T15:49:13.550Z,17.25
2018-11-12T15:51:47.763Z,18.15
2018-11-12T15:54:22.021Z,14.70
2018-11-12T15:56:56.312Z,9.90
2018-11-12T15:59:30.646Z,8.35
2018-11-12T16:02:05.115Z,6.17
2018-11-12T16:04:39.393Z,6.25
2018-11-12T16:07:13.608Z,4.83
2018-11-12T16:09:47.878Z,4.30
2018-11-12T16:12:22.181Z,2.95
2018-11-12T16:14:56.360Z,2.80
2018-11-12T16:17:30.766Z,3.52
2018-11-12T16:20:08.738Z,2.22
2018-11-12T16:22:44.449Z,3.22
2018-11-12T16:25:19.375Z,5.33
2018-11-12T16:27:54.163Z,6.25
2018-11-12T16:30:28.883Z,5.08
2018-11-12T16:33:03.419Z,5.30
2018-11-12T16:35:37.940Z,8.98
2018-11-12T16:38:12.347Z,8.70
2018-11-12T16:40:46.677Z,105.15
2018-11-12T16:43:21.154Z,64.67
2018-11-12T16:45:55.731Z,43.83
2018-11-12T16:48:30.203Z,29.25
2018-11-12T16:51:04.452Z,25.57
2018-11-12T16:53:38.884Z,21.30
2018-11-12T16:56:13.130Z,18.17
2018-11-12T16:58:47.617Z,16.95
2018-11-12T17:01:21.939Z,25.55
2018-11-12T17:03:56.231Z,118.20
2018-11-12T17:06:30.725Z,49.38
2018-11-12T17:09:09.405Z,17.23
2018-11-12T17:11:43.927Z,12.10
2018-11-12T17:14:18.231Z,14.87
2018-11-12T17:16:52.559Z,21.97
2018-11-12T17:19:26.867Z,6.12
2018-11-12T17:22:01.212Z,6.30
2018-11-12T17:24:35.748Z,15.78
2018-11-12T17:27:10.063Z,16.70
2018-11-12T17:29:44.503Z,13.00
2018-11-12T17:32:18.869Z,12.00
2018-11-12T17:34:53.410Z,10.75
2018-11-12T17:37:27.666Z,16.55
2018-11-12T17:40:02.008Z,14.15
2018-11-12T17:42:36.309Z,13.60
2018-11-12T17:45:13.650Z,9.90
2018-11-12T17:47:49.039Z,9.25
2018-11-12T17:50:23.497Z,12.13
2018-11-12T17:52:57.835Z,11.15
2018-11-12T17:55:32.152Z,11.28
2018-11-12T17:58:06.544Z,14.25
2018-11-12T18:00:40.808Z,8.58
2018-11-12T18:03:15.164Z,12.55
2018-11-12T18:05:49.568Z,10.00
2018-11-12T18:08:23.930Z,17.67
2018-11-12T18:10:58.303Z,17.40
2018-11-12T18:13:32.580Z,66.97
2018-11-12T18:16:06.812Z,75.85
2018-11-12T18:18:41.079Z,31.85
2018-11-12T18:21:15.473Z,28.00
2018-11-12T18:23:49.868Z,17.98
2018-11-12T18:26:24.235Z,17.90
2018-11-12T18:28:58.645Z,15.00
2018-11-12T18:31:33.129Z,14.90
2018-11-12T18:34:07.279Z,16.32
2018-11-12T18:36:41.903Z,15.95
2018-11-12T18:39:16.300Z,13.78
2018-11-12T18:41:50.535Z,15.20
2018-11-12T18:44:24.886Z,14.98
2018-11-12T18:46:59.218Z,15.05
2018-11-12T18:49:33.691Z,12.70
2018-11-12T18:52:08.030Z,14.15
2018-11-12T18:54:42.367Z,14.90
2018-11-12T18:57:16.872Z,16.90
2018-11-12T18:59:51.111Z,17.92
2018-11-12T19:02:25.678Z,14.45
2018-11-12T19:05:00.110Z,17.65
2018-11-12T19:07:34.423Z,18.25
2018-11-12T19:10:12.768Z,16.97
2018-11-12T19:12:47.730Z,15.40
2018-11-12T19:15:23.679Z,15.00
2018-11-12T19:17:59.617Z,14.23
2018-11-12T19:20:33.892Z,14.53
2018-11-12T19:23:08.184Z,14.20
2018-11-12T19:25:42.394Z,13.90
2018-11-12T19:28:16.694Z,11.90
2018-11-12T19:30:50.994Z,11.90
2018-11-12T19:33:25.197Z,10.98
2018-11-12T19:35:59.666Z,10.53
2018-11-12T19:38:33.899Z,9.93
2018-11-12T19:41:08.207Z,10.00
2018-11-12T19:43:42.589Z,9.30
2018-11-12T19:46:17.011Z,23.35
2018-11-12T19:48:51.456Z,23.38
2018-11-12T19:51:25.918Z,19.23
2018-11-12T19:54:00.186Z,19.02
2018-11-12T19:56:34.595Z,23.77
2018-11-12T19:59:08.950Z,22.48
2018-11-12T20:01:43.367Z,20.60
2018-11-12T20:04:17.682Z,19.10
2018-11-12T20:06:52.001Z,19.20
2018-11-12T20:09:26.418Z,23.77
2018-11-12T20:12:00.739Z,14.80
2018-11-12T20:14:35.175Z,14.05
2018-11-12T20:17:09.485Z,12.43
2018-11-12T20:19:43.835Z,10.48
2018-11-12T20:22:18.258Z,12.00
2018-11-12T20:24:52.880Z,11.40
2018-11-12T20:27:27.154Z,12.28
2018-11-12T20:30:01.691Z,10.95
2018-11-12T20:32:36.104Z,10.30
2018-11-12T20:35:10.476Z,9.93
2018-11-12T20:37:45.013Z,9.30
2018-11-12T20:40:19.341Z,10.13
2018-11-12T20:42:53.725Z,10.70
2018-11-12T20:45:28.101Z,10.85
2018-11-12T20:48:02.482Z,12.47
2018-11-12T20:50:36.789Z,12.63
2018-11-12T20:53:11.207Z,11.70
2018-11-12T20:55:45.841Z,11.65
2018-11-12T20:58:20.204Z,15.20
2018-11-12T21:00:54.971Z,17.48
2018-11-12T21:10:32.827Z,7.20
2018-11-12T21:13:07.273Z,7.60
2018-11-12T21:15:41.673Z,6.53
2018-11-12T21:18:16.040Z,6.65
2018-11-12T21:20:50.322Z,7.92
2018-11-12T21:23:24.634Z,7.12
2018-11-12T21:25:58.965Z,6.53
2018-11-12T21:28:33.275Z,11.35
2018-11-12T21:31:07.722Z,9.15
2018-11-12T21:33:42.016Z,6.97
2018-11-12T21:36:16.441Z,7.53
2018-11-12T21:38:50.778Z,7.20
2018-11-12T21:41:25.082Z,7.15
2018-11-12T21:43:59.453Z,5.50
2018-11-12T21:46:33.833Z,6.58
2018-11-12T21:49:08.287Z,6.42
2018-11-12T21:51:42.731Z,5.40
2018-11-12T21:54:17.211Z,6.03
2018-11-12T21:56:51.618Z,6.60
2018-11-12T21:59:25.976Z,6.15
2018-11-12T22:02:00.201Z,4.90
2018-11-12T22:04:34.654Z,4.50
2018-11-12T22:07:09.023Z,4.90
2018-11-12T22:09:43.401Z,3.75
2018-11-12T22:12:17.653Z,3.58
2018-11-12T22:14:51.986Z,3.87
2018-11-12T22:17:26.350Z,3.37
2018-11-12T22:20:00.737Z,3.35
2018-11-12T22:22:34.850Z,3.60
2018-11-12T22:25:11.258Z,4.47
2018-11-12T22:27:46.355Z,4.97
2018-11-12T22:30:21.722Z,3.90
2018-11-12T22:32:56.741Z,4.20
2018-11-12T22:35:31.148Z,4.35
2018-11-12T22:38:05.582Z,4.62
2018-11-12T22:40:39.799Z,4.42
2018-11-12T22:43:14.142Z,4.55
2018-11-12T22:45:48.616Z,4.92
2018-11-12T22:48:22.983Z,7.42
2018-11-12T22:50:57.217Z,6.50
2018-11-12T22:53:31.432Z,6.00
2018-11-12T22:56:06.273Z,4.90
2018-11-12T22:58:40.702Z,4.95
2018-11-12T23:01:15.087Z,4.83
2018-11-12T23:03:49.342Z,5.15
2018-11-12T23:06:23.731Z,4.62
2018-11-12T23:08:58.048Z,4.60
2018-11-12T23:11:32.373Z,4.65
2018-11-12T23:14:06.758Z,5.80
2018-11-12T23:16:41.603Z,7.72
2018-11-12T23:19:16.416Z,5.10
2018-11-12T23:21:50.873Z,5.40
2018-11-12T23:24:25.123Z,4.53
2018-11-12T23:26:59.388Z,5.62
2018-11-12T23:29:33.645Z,4.83
2018-11-12T23:32:08.097Z,4.83
2018-11-12T23:34:42.437Z,5.35
2018-11-12T23:37:16.707Z,6.62
2018-11-12T23:39:51.121Z,5.90
2018-11-12T23:42:25.510Z,5.72
2018-11-12T23:44:59.985Z,4.65
2018-11-12T23:47:34.839Z,5.12
2018-11-12T23:50:12.738Z,5.40
2018-11-12T23:52:47.759Z,6.05
2018-11-12T23:55:22.231Z,5.00
2018-11-12T23:57:56.421Z,4.75
